Time;durP1;ratioP1;P1;durP2;ratioP2;P2;SDS_P1;SDS_P2;PMS_P1;PMS_P2;Temp;Humidity;BMP_temperature;BMP_pressure;BME280_temperature;BME280_humidity;BME280_pressure;Samples;Min_cycle;Max_cycle;Signal;HPM_P1;HPM_P2
2022/01/31 00:02:12;;;;;;;20.67;6.78;;;;;;;3.68;98.25;100992.81;4996476;28;20646;-87
2022/01/31 00:04:38;;;;;;;18.65;6.05;;;;;;;3.70;98.07;100982.94;5013147;28;20076;-87
2022/01/31 00:07:04;;;;;;;17.08;5.80;;;;;;;3.74;98.46;100949.03;5012269;28;20090;-86
2022/01/31 00:09:30;;;;;;;20.60;6.35;;;;;;;3.73;97.79;100918.16;4996774;28;20053;-88
2022/01/31 00:12:03;;;;;;;16.15;4.75;;;;;;;3.71;97.05;100899.72;5012016;28;20432;-87
2022/01/31 00:14:39;;;;;;;17.67;6.40;;;;;;;3.71;97.58;100902.38;5013581;28;20041;-86
2022/01/31 00:17:06;;;;;;;15.52;5.70;;;;;;;3.74;97.48;100895.97;5030789;28;20107;-89
2022/01/31 00:19:32;;;;;;;19.60;6.43;;;;;;;3.75;98.36;100908.28;4981099;28;20522;-85
2022/01/31 00:21:58;;;;;;;17.02;6.15;;;;;;;3.74;97.63;100903.91;4990178;28;20410;-87
2022/01/31 00:24:24;;;;;;;16.58;6.63;;;;;;;3.75;98.57;100901.16;5013270;28;20053;-85
2022/01/31 00:26:49;;;;;;;16.20;6.38;;;;;;;3.67;97.80;100869.06;5012840;28;20053;-87
2022/01/31 00:29:14;;;;;;;17.90;6.15;;;;;;;3.67;98.14;100861.09;5013133;28;20430;-88
2022/01/31 00:31:40;;;;;;;18.60;6.78;;;;;;;3.72;98.21;100853.63;5012549;28;20107;-89
2022/01/31 00:34:05;;;;;;;22.30;6.40;;;;;;;3.77;99.02;100863.88;4995726;28;20107;-87
2022/01/31 00:36:31;;;;;;;21.55;6.05;;;;;;;3.72;97.87;100850.97;5012500;28;20132;-87
2022/01/31 00:38:56;;;;;;;15.75;5.93;;;;;;;3.74;97.84;100846.41;4977992;28;20080;-87
2022/01/31 00:41:21;;;;;;;15.77;6.30;;;;;;;3.75;97.97;100840.13;4980306;28;20079;-87
2022/01/31 00:43:57;;;;;;;21.77;5.57;;;;;;;3.79;98.03;100815.00;4996491;28;20472;-86
2022/01/31 00:46:29;;;;;;;16.92;6.57;;;;;;;3.80;97.85;100789.34;4995323;28;20556;-86
2022/01/31 00:48:54;;;;;;;19.02;6.53;;;;;;;3.82;97.71;100790.88;5013023;28;20136;-85
2022/01/31 00:51:19;;;;;;;15.93;6.13;;;;;;;3.86;98.17;100774.72;4991927;28;20054;-87
2022/01/31 00:53:45;;;;;;;17.35;5.50;;;;;;;3.86;97.57;100766.75;5025920;28;20049;-86
2022/01/31 00:56:10;;;;;;;13.57;5.53;;;;;;;3.84;97.10;100754.44;4995624;28;20046;-88
2022/01/31 00:58:36;;;;;;;22.17;7.10;;;;;;;3.88;96.69;100749.72;5030124;28;20037;-90
2022/01/31 01:01:01;;;;;;;17.63;5.57;;;;;;;3.91;97.08;100728.22;5009862;28;20040;-88
2022/01/31 01:03:27;;;;;;;20.77;4.88;;;;;;;3.88;94.92;100717.03;5012172;28;20481;-86
2022/01/31 01:05:53;;;;;;;16.23;5.50;;;;;;;3.91;96.22;100693.72;4986238;28;20041;-86
2022/01/31 01:08:18;;;;;;;17.58;6.47;;;;;;;3.94;96.72;100682.00;4997092;28;20077;-87
2022/01/31 01:10:44;;;;;;;18.35;6.15;;;;;;;3.93;96.07;100675.03;5011615;28;20125;-89
2022/01/31 01:13:09;;;;;;;19.17;5.70;;;;;;;3.93;95.91;100669.72;5012098;28;20113;-87
2022/01/31 01:15:34;;;;;;;17.13;5.72;;;;;;;3.92;95.43;100657.41;5015239;28;20067;-87
2022/01/31 01:18:00;;;;;;;13.10;4.95;;;;;;;3.95;96.28;100630.63;5034557;28;20259;-87
2022/01/31 01:20:26;;;;;;;15.20;5.60;;;;;;;3.96;95.99;100632.28;5010351;28;20100;-87
2022/01/31 01:22:52;;;;;;;14.25;6.32;;;;;;;4.02;97.29;100618.50;4995061;28;20049;-87
2022/01/31 01:25:17;;;;;;;15.32;4.80;;;;;;;3.97;96.21;100607.41;5007803;28;20049;-87
2022/01/31 01:27:46;;;;;;;13.90;5.80;;;;;;;3.95;96.55;100575.69;4996299;28;20561;-87
2022/01/31 01:30:13;;;;;;;20.50;6.07;;;;;;;3.93;97.35;100601.53;5008310;28;20053;-88
2022/01/31 01:32:49;;;;;;;23.75;5.97;;;;;;;3.94;98.44;100576.69;4979460;28;20045;-86
2022/01/31 01:35:15;;;;;;;15.05;5.97;;;;;;;3.94;99.35;100559.88;4999481;28;20562;-87
2022/01/31 01:37:41;;;;;;;15.40;4.43;;;;;;;3.86;98.93;100560.53;5012626;28;20128;-89
2022/01/31 01:40:07;;;;;;;18.77;6.90;;;;;;;3.83;100.00;100555.47;4990952;28;20133;-88
2022/01/31 01:42:33;;;;;;;23.73;8.18;;;;;;;3.82;100.00;100533.38;4991683;28;20132;-89
2022/01/31 01:44:59;;;;;;;15.02;6.45;;;;;;;3.68;100.00;100525.72;4992852;28;20038;-87
2022/01/31 01:47:25;;;;;;;19.25;6.50;;;;;;;3.64;100.00;100511.03;4995133;28;20103;-88
2022/01/31 01:49:52;;;;;;;15.15;5.80;;;;;;;3.58;100.00;100506.22;5011506;28;20045;-88
2022/01/31 01:52:18;;;;;;;17.42;5.95;;;;;;;3.55;100.00;100502.00;5011573;28;20119;-86
2022/01/31 01:54:48;;;;;;;17.30;6.63;;;;;;;3.50;100.00;100485.63;5012020;28;20449;-89
2022/01/31 01:57:14;;;;;;;21.00;6.93;;;;;;;3.44;100.00;100483.47;4998181;28;20038;-88
2022/01/31 01:59:40;;;;;;;16.55;6.38;;;;;;;3.44;100.00;100472.88;5028886;28;20043;-89
2022/01/31 02:02:07;;;;;;;17.70;6.53;;;;;;;3.34;100.00;100472.78;5028325;28;20088;-89
2022/01/31 02:04:33;;;;;;;17.80;6.55;;;;;;;3.34;100.00;100454.22;4994938;28;20073;-87
2022/01/31 02:06:58;;;;;;;21.92;5.70;;;;;;;3.23;100.00;100438.34;5027673;28;20106;-87
2022/01/31 02:09:30;;;;;;;18.23;8.02;;;;;;;3.24;100.00;100445.31;5009635;28;20059;-89
2022/01/31 02:11:57;;;;;;;14.40;7.82;;;;;;;3.14;100.00;100431.16;4991925;28;20046;-85
2022/01/31 02:14:26;;;;;;;23.67;7.50;;;;;;;3.05;100.00;100439.81;4992179;28;20136;-87
2022/01/31 02:16:52;;;;;;;18.73;8.63;;;;;;;3.02;100.00;100408.25;5010270;28;20045;-90
2022/01/31 02:19:21;;;;;;;20.77;8.82;;;;;;;3.03;100.00;100394.06;5025029;28;20103;-88
2022/01/31 02:21:50;;;;;;;21.55;9.02;;;;;;;3.00;100.00;100396.97;4983747;28;20077;-89
2022/01/31 02:24:15;;;;;;;;;;;;;;;2.91;100.00;100378.19;4976451;28;20195;-88
2022/01/31 02:26:40;;;;;;;17.83;7.07;;;;;;;2.76;100.00;100373.28;5009355;28;20004;-86
2022/01/31 02:29:11;;;;;;;16.65;7.85;;;;;;;2.76;100.00;100362.69;5005311;28;20048;-87
2022/01/31 02:31:37;;;;;;;17.67;7.93;;;;;;;2.74;100.00;100360.16;4989307;28;20038;-88
2022/01/31 02:34:02;;;;;;;22.13;10.38;;;;;;;2.74;100.00;100354.03;5008592;28;20482;-88
2022/01/31 02:36:28;;;;;;;21.63;8.82;;;;;;;2.74;100.00;100348.72;4993360;28;20115;-89
2022/01/31 02:38:54;;;;;;;15.55;7.03;;;;;;;2.69;100.00;100346.44;4992933;28;20045;-87
2022/01/31 02:41:20;;;;;;;17.70;9.88;;;;;;;2.72;100.00;100331.13;4976921;28;20187;-89
2022/01/31 02:43:52;;;;;;;16.08;8.05;;;;;;;2.69;100.00;100331.38;4994056;28;20124;-90
2022/01/31 02:46:24;;;;;;;17.17;8.20;;;;;;;2.68;100.00;100320.94;5009907;28;20065;-87
2022/01/31 02:48:53;;;;;;;12.18;6.53;;;;;;;2.70;100.00;100311.03;5011959;28;20046;-88
2022/01/31 02:51:24;;;;;;;21.67;10.32;;;;;;;2.76;100.00;100280.53;4991165;28;20030;-85
2022/01/31 02:53:50;;;;;;;15.23;7.93;;;;;;;2.69;100.00;100306.69;5007444;28;20046;-89
2022/01/31 02:56:15;;;;;;;16.63;9.75;;;;;;;2.73;100.00;100289.56;4992472;28;20112;-90
2022/01/31 02:58:40;;;;;;;13.05;8.82;;;;;;;2.71;100.00;100275.63;5006209;28;20048;-87
2022/01/31 03:01:07;;;;;;;16.77;8.52;;;;;;;2.69;100.00;100269.59;4974697;28;20163;-88
2022/01/31 03:03:32;;;;;;;17.00;10.05;;;;;;;2.72;100.00;100262.25;5008004;28;20420;-87
2022/01/31 03:05:58;;;;;;;14.15;7.25;;;;;;;2.65;100.00;100245.19;4991145;28;20125;-85
2022/01/31 03:08:24;;;;;;;19.55;9.13;;;;;;;2.71;100.00;100249.13;5024481;28;20061;-89
2022/01/31 03:10:50;;;;;;;14.13;8.40;;;;;;;2.68;100.00;100233.50;5006428;28;20136;-89
2022/01/31 03:13:16;;;;;;;15.43;8.93;;;;;;;2.69;100.00;100228.06;5023382;28;20132;-87
2022/01/31 03:15:42;;;;;;;12.52;8.05;;;;;;;2.69;100.00;100206.03;5008225;28;20401;-86
2022/01/31 03:18:08;;;;;;;17.25;8.57;;;;;;;2.72;100.00;100216.38;5005941;28;20040;-91
2022/01/31 03:20:35;;;;;;;13.65;7.55;;;;;;;2.72;100.00;100182.75;4992177;28;20045;-88
2022/01/31 03:23:01;;;;;;;13.85;9.88;;;;;;;2.76;100.00;100188.63;5018479;28;20076;-87
2022/01/31 03:25:26;;;;;;;16.33;7.90;;;;;;;2.75;100.00;100163.13;5009203;28;20053;-87
2022/01/31 03:27:53;;;;;;;14.52;8.40;;;;;;;2.82;100.00;100168.72;5006647;28;20041;-86
2022/01/31 03:30:23;;;;;;;18.90;11.27;;;;;;;2.86;100.00;100181.59;5023226;28;20053;-88
2022/01/31 03:32:49;;;;;;;17.60;10.13;;;;;;;2.86;100.00;100152.44;5027404;28;20046;-88
2022/01/31 03:35:14;;;;;;;18.65;11.30;;;;;;;2.90;100.00;100145.06;5011797;28;20111;-88
2022/01/31 03:37:41;;;;;;;18.60;9.88;;;;;;;2.90;100.00;100142.41;5010275;28;20468;-88
2022/01/31 03:40:08;;;;;;;22.15;12.85;;;;;;;2.97;100.00;100140.94;5010169;28;20052;-88
2022/01/31 03:42:35;;;;;;;18.83;10.15;;;;;;;2.96;100.00;100130.44;5028735;28;20404;-89
2022/01/31 03:45:01;;;;;;;20.83;12.95;;;;;;;2.99;100.00;100117.78;5020280;28;20049;-88
2022/01/31 03:47:26;;;;;;;17.90;12.52;;;;;;;3.00;100.00;100122.13;5011705;28;20055;-87
2022/01/31 03:49:53;;;;;;;20.65;12.70;;;;;;;3.05;100.00;100119.06;5006176;28;20033;-88
2022/01/31 03:52:18;;;;;;;18.98;11.35;;;;;;;3.07;100.00;100119.78;5011350;28;20041;-87
2022/01/31 03:54:44;;;;;;;20.92;12.20;;;;;;;3.12;100.00;100093.72;5006789;28;20045;-87
2022/01/31 03:57:11;;;;;;;18.83;12.48;;;;;;;3.18;100.00;100101.13;5008683;28;20115;-89
2022/01/31 03:59:37;;;;;;;20.42;14.82;;;;;;;3.23;100.00;100096.25;5012355;28;20107;-89
2022/01/31 04:02:05;;;;;;;26.75;14.75;;;;;;;3.28;100.00;100109.97;5009028;28;20038;-89
2022/01/31 04:04:30;;;;;;;23.05;14.98;;;;;;;3.32;100.00;100086.66;5009556;28;20145;-88
2022/01/31 04:06:56;;;;;;;19.55;11.27;;;;;;;3.35;100.00;100091.69;5005300;28;20204;-87
2022/01/31 04:09:22;;;;;;;28.23;11.10;;;;;;;3.41;100.00;100074.41;5011225;28;20064;-87
2022/01/31 04:11:47;;;;;;;24.25;14.75;;;;;;;3.47;100.00;100073.84;5023507;28;20057;-87
2022/01/31 04:14:13;;;;;;;19.35;9.25;;;;;;;3.49;100.00;100066.63;4993205;28;20490;-88
2022/01/31 04:16:38;;;;;;;28.08;13.75;;;;;;;3.56;100.00;100065.06;5008951;28;20137;-89
2022/01/31 04:19:06;;;;;;;28.95;13.68;;;;;;;3.65;100.00;100058.09;5030512;28;20071;-87
2022/01/31 04:21:32;;;;;;;17.70;9.93;;;;;;;3.74;100.00;100050.19;4992981;28;20041;-87
2022/01/31 04:23:59;;;;;;;18.60;9.32;;;;;;;3.79;100.00;100058.53;5007079;28;20038;-89
2022/01/31 04:26:31;;;;;;;23.27;14.02;;;;;;;3.84;100.00;100050.16;4992200;28;20106;-87
2022/01/31 04:29:05;;;;;;;23.63;11.82;;;;;;;3.87;100.00;100043.75;5010068;28;20090;-89
2022/01/31 04:31:39;;;;;;;20.17;8.88;;;;;;;3.92;100.00;100039.69;5027896;28;21675;-86
2022/01/31 04:34:05;;;;;;;18.02;8.23;;;;;;;4.01;100.00;100038.03;5009113;28;20041;-89
2022/01/31 04:36:31;;;;;;;18.90;9.02;;;;;;;4.08;100.00;100025.84;4994364;28;20089;-89
2022/01/31 04:38:57;;;;;;;18.98;10.05;;;;;;;4.15;100.00;100020.84;4993467;28;20103;-88
2022/01/31 04:41:22;;;;;;;12.68;8.18;;;;;;;4.21;100.00;100020.25;4992600;28;20048;-91
2022/01/31 04:43:52;;;;;;;20.90;8.93;;;;;;;4.24;100.00;100015.50;5009030;28;20045;-89
2022/01/31 04:46:19;;;;;;;17.30;6.85;;;;;;;4.28;100.00;99995.63;5004203;28;20030;-89
2022/01/31 04:48:45;;;;;;;19.42;8.38;;;;;;;4.34;100.00;100011.97;5008765;28;20069;-89
2022/01/31 04:51:12;;;;;;;19.55;7.82;;;;;;;4.33;100.00;99997.84;4993307;28;20136;-89
2022/01/31 04:53:37;;;;;;;14.48;6.93;;;;;;;4.33;100.00;100018.28;5010327;28;20049;-87
2022/01/31 04:56:03;;;;;;;9.73;3.95;;;;;;;4.29;100.00;100007.94;5006627;28;20045;-87
2022/01/31 04:58:30;;;;;;;11.05;4.07;;;;;;;4.27;100.00;100015.22;5007388;28;20052;-89
2022/01/31 05:00:55;;;;;;;8.52;3.42;;;;;;;4.27;100.00;100023.16;5008029;28;20052;-88
2022/01/31 05:03:20;;;;;;;11.88;3.17;;;;;;;4.28;100.00;100010.72;4993878;28;20107;-86
2022/01/31 05:05:46;;;;;;;12.07;3.20;;;;;;;4.32;100.00;100013.97;5024338;28;20042;-87
2022/01/31 05:08:12;;;;;;;9.85;2.60;;;;;;;4.28;100.00;100006.25;5015046;28;22772;-88
2022/01/31 05:10:46;;;;;;;13.27;3.17;;;;;;;4.26;100.00;99986.16;5010129;28;20084;-87
2022/01/31 05:13:13;;;;;;;7.85;2.15;;;;;;;4.27;100.00;99999.28;4994333;28;20132;-88
2022/01/31 05:15:40;;;;;;;7.07;2.10;;;;;;;4.27;100.00;100009.06;5011083;28;20045;-88
2022/01/31 05:18:05;;;;;;;8.82;2.50;;;;;;;4.31;100.00;99991.84;5007813;28;20107;-88
2022/01/31 05:20:33;;;;;;;8.20;2.33;;;;;;;4.34;100.00;100009.31;5007642;28;20037;-90
2022/01/31 05:22:59;;;;;;;12.18;3.08;;;;;;;4.35;100.00;100000.38;5004362;28;20095;-88
2022/01/31 05:25:26;;;;;;;12.32;3.22;;;;;;;4.35;100.00;100006.53;4978298;28;20046;-87
2022/01/31 05:27:51;;;;;;;11.40;2.67;;;;;;;4.35;100.00;100000.38;5015048;28;20052;-87
2022/01/31 05:30:17;;;;;;;8.60;2.45;;;;;;;4.35;100.00;99992.41;4992096;28;20053;-88
2022/01/31 05:32:43;;;;;;;7.63;2.40;;;;;;;4.33;100.00;99997.03;4990791;28;20057;-88
2022/01/31 05:35:10;;;;;;;10.65;2.70;;;;;;;4.33;100.00;99991.72;5023921;28;20041;-88
2022/01/31 05:37:35;;;;;;;9.18;2.30;;;;;;;4.33;100.00;99970.47;5010878;28;20549;-87
2022/01/31 05:40:04;;;;;;;11.18;2.85;;;;;;;4.34;100.00;99969.47;4994763;28;20041;-86
2022/01/31 05:42:30;;;;;;;12.25;2.20;;;;;;;4.32;100.00;99974.13;5027925;28;20053;-86
2022/01/31 05:44:55;;;;;;;12.75;2.72;;;;;;;4.32;100.00;99963.50;5007389;28;20466;-85
2022/01/31 05:47:22;;;;;;;12.98;3.33;;;;;;;4.32;100.00;99963.50;5016495;28;20052;-86
2022/01/31 05:49:47;;;;;;;9.93;3.25;;;;;;;4.30;100.00;99958.31;5028059;28;20041;-86
2022/01/31 05:52:15;;;;;;;12.35;2.80;;;;;;;4.29;100.00;99952.16;5014086;28;20527;-86
2022/01/31 05:54:41;;;;;;;9.10;2.13;;;;;;;4.28;100.00;99939.00;5027067;28;20450;-88
2022/01/31 05:57:07;;;;;;;11.77;3.08;;;;;;;4.29;100.00;99951.34;5009300;28;20505;-87
2022/01/31 05:59:34;;;;;;;14.90;3.22;;;;;;;4.27;100.00;99945.31;4982388;28;20060;-88
2022/01/31 06:02:01;;;;;;;16.98;3.45;;;;;;;4.27;100.00;99940.84;5010766;28;20033;-86
2022/01/31 06:04:27;;;;;;;10.15;2.40;;;;;;;4.27;100.00;99951.47;5014507;28;20375;-87
2022/01/31 06:06:52;;;;;;;13.85;2.78;;;;;;;4.30;100.00;99945.84;4978220;28;21441;-88
2022/01/31 06:09:18;;;;;;;11.20;3.42;;;;;;;4.28;100.00;99936.34;5024712;28;30483;-87
2022/01/31 06:11:45;;;;;;;14.05;3.30;;;;;;;4.32;100.00;99950.22;5010815;28;20394;-86
2022/01/31 06:14:11;;;;;;;14.77;3.55;;;;;;;4.28;100.00;99949.63;4993219;28;20045;-89
2022/01/31 06:16:38;;;;;;;13.55;3.65;;;;;;;4.23;100.00;99952.75;4991554;28;20494;-86
2022/01/31 06:19:05;;;;;;;12.75;4.30;;;;;;;4.23;100.00;99955.41;5001617;28;20516;-86
2022/01/31 06:21:32;;;;;;;17.38;4.50;;;;;;;4.23;100.00;99959.84;4971225;28;20038;-87
2022/01/31 06:23:57;;;;;;;12.30;3.65;;;;;;;4.19;100.00;99948.69;4985204;28;20056;-89
2022/01/31 06:26:23;;;;;;;14.82;3.13;;;;;;;4.12;100.00;99930.84;5008214;28;20405;-85
2022/01/31 06:28:48;;;;;;;14.10;3.40;;;;;;;4.12;100.00;99931.66;5022921;28;20110;-86
2022/01/31 06:31:14;;;;;;;12.85;3.55;;;;;;;4.12;100.00;99926.34;5008320;28;20073;-88
2022/01/31 06:33:40;;;;;;;14.90;3.50;;;;;;;4.10;100.00;99930.97;5025645;28;20049;-87
2022/01/31 06:36:06;;;;;;;9.40;2.53;;;;;;;4.06;100.00;99927.75;5010072;28;20501;-88
2022/01/31 06:38:31;;;;;;;7.63;2.60;;;;;;;4.06;100.00;99937.56;4992612;28;20100;-84
2022/01/31 06:40:57;;;;;;;10.93;2.65;;;;;;;4.05;100.00;99935.84;4990847;28;20209;-85
2022/01/31 06:43:22;;;;;;;9.55;2.53;;;;;;;4.05;100.00;99931.38;5012413;28;20128;-87
2022/01/31 06:45:49;;;;;;;10.18;2.22;;;;;;;4.04;100.00;99928.88;4994111;28;20046;-88
2022/01/31 06:48:15;;;;;;;8.50;2.35;;;;;;;3.98;100.00;99929.47;4992021;28;20077;-83
2022/01/31 06:50:41;;;;;;;9.20;2.42;;;;;;;3.97;100.00;99922.47;4993231;28;20048;-87
2022/01/31 06:53:06;;;;;;;6.35;1.92;;;;;;;3.93;100.00;99929.03;5008620;28;20029;-86
2022/01/31 06:55:34;;;;;;;9.93;2.67;;;;;;;3.91;100.00;99928.34;5008343;28;20044;-86
2022/01/31 06:58:04;;;;;;;7.82;3.13;;;;;;;3.90;100.00;99922.19;5009510;28;20450;-85
2022/01/31 07:00:30;;;;;;;16.48;5.22;;;;;;;3.85;100.00;99924.44;5006874;28;20303;-85
2022/01/31 07:03:00;;;;;;;6.85;2.63;;;;;;;3.83;100.00;99913.16;4991290;28;20165;-87
2022/01/31 07:05:26;;;;;;;15.13;7.10;;;;;;;3.86;100.00;99914.69;5027325;28;20071;-87
2022/01/31 07:07:55;;;;;;;10.40;3.83;;;;;;;3.86;100.00;99914.69;4997023;28;20041;-87
2022/01/31 07:10:20;;;;;;;12.00;3.70;;;;;;;3.84;100.00;99912.16;5010251;28;20050;-85
2022/01/31 07:12:52;;;;;;;10.15;1.90;;;;;;;3.80;100.00;99908.13;5010945;28;20052;-85
2022/01/31 07:15:18;;;;;;;8.73;3.08;;;;;;;3.81;100.00;99900.00;5009286;28;20045;-86
2022/01/31 07:17:46;;;;;;;10.15;2.30;;;;;;;3.80;100.00;99901.00;5028074;28;20049;-87
2022/01/31 07:20:22;;;;;;;11.85;2.78;;;;;;;3.79;100.00;99891.34;5028517;28;20116;-86
2022/01/31 07:22:55;;;;;;;11.00;2.63;;;;;;;3.77;100.00;99877.41;5026694;28;20056;-86
2022/01/31 07:25:34;;;;;;;11.13;4.20;;;;;;;3.79;100.00;99862.16;5011440;28;20405;-86
2022/01/31 07:28:01;;;;;;;10.70;3.70;;;;;;;3.77;100.00;99884.50;5005440;28;20100;-86
2022/01/31 07:30:27;;;;;;;13.18;4.50;;;;;;;3.79;100.00;99859.50;5027252;28;20123;-86
2022/01/31 07:32:53;;;;;;;7.25;3.67;;;;;;;3.80;100.00;99868.31;4993704;28;20139;-86
2022/01/31 07:35:18;;;;;;;9.52;2.40;;;;;;;3.79;100.00;99870.09;4996574;28;20057;-86
2022/01/31 07:37:44;;;;;;;9.85;2.70;;;;;;;3.78;100.00;99844.56;5013267;28;20046;-86
2022/01/31 07:40:10;;;;;;;13.45;3.35;;;;;;;3.80;100.00;99869.16;5010101;28;20509;-86
2022/01/31 07:42:36;;;;;;;11.77;2.78;;;;;;;3.81;100.00;99867.31;4996304;28;20057;-86
2022/01/31 07:45:03;;;;;;;11.00;3.15;;;;;;;3.78;100.00;99855.19;5008808;28;20041;-87
2022/01/31 07:47:29;;;;;;;12.88;3.58;;;;;;;3.83;100.00;99860.91;4999445;28;20049;-86
2022/01/31 07:49:54;;;;;;;11.63;3.25;;;;;;;3.86;100.00;99862.44;4977179;28;20484;-87
2022/01/31 07:52:20;;;;;;;16.25;3.17;;;;;;;3.86;100.00;99865.09;5028317;28;20048;-87
2022/01/31 07:54:45;;;;;;;12.48;3.05;;;;;;;3.81;100.00;99860.19;4993526;28;20379;-85
2022/01/31 07:57:12;;;;;;;9.25;2.50;;;;;;;3.83;100.00;99863.56;4992888;28;20072;-87
2022/01/31 07:59:37;;;;;;;11.30;2.75;;;;;;;3.83;100.00;99852.94;4998827;28;20052;-88
2022/01/31 08:02:03;;;;;;;14.32;3.08;;;;;;;3.87;100.00;99863.25;4994505;28;20041;-86
2022/01/31 08:04:29;;;;;;;9.85;2.30;;;;;;;3.87;100.00;99861.44;4997372;28;20056;-87
2022/01/31 08:06:54;;;;;;;10.85;2.75;;;;;;;3.89;100.00;99867.44;4989616;28;20037;-88
2022/01/31 08:09:19;;;;;;;9.85;2.53;;;;;;;3.90;100.00;99852.34;5011762;28;20045;-87
2022/01/31 08:11:45;;;;;;;9.82;2.08;;;;;;;3.91;100.00;99849.53;4995315;28;20391;-87
2022/01/31 08:14:11;;;;;;;6.22;1.27;;;;;;;3.90;100.00;99853.19;4999007;28;20068;-87
2022/01/31 08:16:38;;;;;;;9.25;2.40;;;;;;;3.94;100.00;99846.63;5014585;28;20042;-87
2022/01/31 08:19:07;;;;;;;8.05;1.50;;;;;;;3.93;100.00;99838.78;5013001;28;20405;-85
2022/01/31 08:21:33;;;;;;;;;;;;;;;3.89;100.00;99840.06;5014036;28;20128;-87
2022/01/31 08:23:58;;;;;;;8.80;3.33;;;;;;;3.82;100.00;99824.69;5009666;28;20020;-86
2022/01/31 08:26:24;;;;;;;12.73;3.97;;;;;;;3.83;100.00;99842.31;5013399;28;20120;-86
2022/01/31 08:28:56;;;;;;;8.95;2.63;;;;;;;3.87;100.00;99845.50;5027803;28;20048;-87
2022/01/31 08:31:28;;;;;;;11.25;3.75;;;;;;;3.89;100.00;99835.59;5009778;28;20037;-85
2022/01/31 08:36:24;;;;;;;6.47;1.45;;;;;;;3.88;100.00;99833.91;5030360;28;20573;-87
2022/01/31 08:38:50;;;;;;;11.55;2.10;;;;;;;3.94;100.00;99832.50;4989628;28;20042;-87
2022/01/31 08:41:16;;;;;;;6.18;1.42;;;;;;;3.94;100.00;99827.19;5018502;28;20128;-87
2022/01/31 08:43:42;;;;;;;9.73;2.30;;;;;;;3.98;100.00;99831.25;4992991;28;20609;-86
2022/01/31 08:46:09;;;;;;;10.63;2.38;;;;;;;4.02;100.00;99814.03;5000461;28;20038;-87
2022/01/31 08:48:35;;;;;;;7.15;1.50;;;;;;;4.00;100.00;99831.91;5010400;28;20115;-87
2022/01/31 08:51:01;;;;;;;6.80;1.73;;;;;;;4.03;100.00;99823.69;5023679;28;20608;-87
2022/01/31 08:53:27;;;;;;;12.98;2.10;;;;;;;4.05;100.00;99824.34;4995642;28;20060;-87
2022/01/31 08:55:55;;;;;;;11.10;2.38;;;;;;;4.05;100.00;99816.38;5004392;28;20041;-86
2022/01/31 08:58:21;;;;;;;9.13;1.83;;;;;;;4.04;100.00;99817.38;5001380;28;20045;-86
2022/01/31 09:00:50;;;;;;;7.35;1.42;;;;;;;4.05;100.00;99827.00;5005027;28;20037;-89
2022/01/31 09:03:34;;;;;;;7.78;1.80;;;;;;;4.07;100.00;99825.03;5003777;28;20379;-88
2022/01/31 09:06:00;;;;;;;7.63;1.83;;;;;;;4.09;100.00;99811.63;5021782;28;20065;-88
2022/01/31 09:08:25;;;;;;;11.68;1.90;;;;;;;4.12;100.00;99796.25;5003398;28;20052;-88
2022/01/31 09:10:50;;;;;;;7.05;1.80;;;;;;;4.13;100.00;99824.47;5015154;28;20049;-89
2022/01/31 09:13:17;;;;;;;9.63;2.72;;;;;;;4.17;100.00;99809.06;5005512;28;20033;-87
2022/01/31 09:15:43;;;;;;;10.82;1.75;;;;;;;4.17;100.00;99809.91;5004147;28;20161;-88
2022/01/31 09:18:09;;;;;;;7.88;2.08;;;;;;;4.17;100.00;99807.28;5005777;28;20076;-89
2022/01/31 09:20:35;;;;;;;6.05;1.60;;;;;;;4.14;100.00;99804.88;4991591;28;20084;-88
2022/01/31 09:23:02;;;;;;;7.75;2.00;;;;;;;4.13;100.00;99805.88;5023671;28;20072;-89
2022/01/31 09:25:28;;;;;;;7.75;1.58;;;;;;;4.16;100.00;99794.13;5005796;28;20505;-88
2022/01/31 09:27:54;;;;;;;9.43;1.67;;;;;;;4.15;100.00;99787.97;5016534;28;20349;-89
2022/01/31 09:30:21;;;;;;;11.35;2.08;;;;;;;4.21;100.00;99802.50;4986575;28;20465;-88
2022/01/31 09:32:47;;;;;;;11.23;2.58;;;;;;;4.21;100.00;99787.38;5025547;28;20065;-88
2022/01/31 09:35:12;;;;;;;8.68;1.80;;;;;;;4.25;100.00;99795.88;5006329;28;20128;-88
2022/01/31 09:37:38;;;;;;;8.52;2.05;;;;;;;4.28;100.00;99806.22;5008662;28;20037;-89
2022/01/31 09:40:04;;;;;;;8.55;1.92;;;;;;;4.30;100.00;99813.06;5028949;28;20069;-87
2022/01/31 09:42:57;;;;;;;11.65;2.15;;;;;;;4.34;100.00;99787.03;5010180;28;20045;-89
2022/01/31 09:45:33;;;;;;;11.18;2.90;;;;;;;4.40;100.00;99812.16;5025924;28;20050;-88
2022/01/31 09:50:27;;;;;;;6.97;1.65;;;;;;;4.48;100.00;99810.44;5012922;28;20128;-88
2022/01/31 09:52:56;;;;;;;9.73;2.05;;;;;;;4.54;100.00;99835.56;5014207;28;20049;-88
2022/01/31 09:55:25;;;;;;;9.77;2.22;;;;;;;4.58;100.00;99834.31;5022505;28;20097;-87
2022/01/31 09:57:53;;;;;;;11.43;2.45;;;;;;;4.64;100.00;99851.47;4996679;28;20037;-89
2022/01/31 10:00:19;;;;;;;7.68;2.05;;;;;;;4.65;100.00;99858.47;5007985;28;20042;-88
2022/01/31 10:03:04;;;;;;;8.60;2.05;;;;;;;4.69;100.00;99834.09;5005914;28;20053;-89
2022/01/31 10:05:29;;;;;;;10.65;2.03;;;;;;;4.72;100.00;99855.06;5022177;28;20146;-90
2022/01/31 10:07:55;;;;;;;11.70;2.10;;;;;;;4.74;100.00;99895.59;4991557;28;20129;-89
2022/01/31 10:10:23;;;;;;;12.00;2.55;;;;;;;4.78;100.00;99847.47;4980598;28;20508;-87
2022/01/31 10:18:04;;;;;;;8.00;2.00;;;;;;;4.88;100.00;99896.91;5009009;28;20051;-87
2022/01/31 10:20:34;;;;;;;8.82;2.00;;;;;;;4.91;100.00;99907.25;5007364;28;20037;-86
2022/01/31 10:23:12;;;;;;;8.20;2.10;;;;;;;4.96;100.00;99909.47;5011526;28;20132;-86
2022/01/31 10:25:38;;;;;;;9.68;2.15;;;;;;;5.01;100.00;99923.16;4992226;28;20038;-86
2022/01/31 10:28:12;;;;;;;7.57;2.13;;;;;;;5.11;100.00;99921.25;5010026;28;20498;-86
2022/01/31 10:30:37;;;;;;;8.10;2.00;;;;;;;5.19;100.00;99926.66;4988761;28;20565;-85
2022/01/31 10:33:07;;;;;;;8.00;2.40;;;;;;;5.25;100.00;99938.53;4991658;28;20041;-86
2022/01/31 10:35:33;;;;;;;10.43;3.28;;;;;;;5.28;100.00;99937.41;5027213;28;20049;-86
2022/01/31 10:38:03;;;;;;;8.77;2.67;;;;;;;5.25;100.00;99954.50;5023076;28;20033;-87
2022/01/31 10:57:00;;;;;;;7.63;2.08;;;;;;;5.18;100.00;99978.22;5027831;28;20052;-89
2022/01/31 10:59:35;;;;;;;9.20;1.85;;;;;;;5.19;100.00;99992.34;5006855;28;20077;-90
2022/01/31 11:02:04;;;;;;;8.65;2.17;;;;;;;5.19;100.00;99995.84;5009954;28;20041;-86
2022/01/31 11:04:38;;;;;;;6.93;2.50;;;;;;;5.18;100.00;100004.81;4999282;28;20455;-89
2022/01/31 11:07:07;;;;;;;5.30;1.67;;;;;;;5.16;100.00;100017.41;5007341;28;20048;-90
2022/01/31 11:09:33;;;;;;;4.95;1.40;;;;;;;5.15;100.00;100002.44;5010635;28;20037;-87
2022/01/31 11:12:00;;;;;;;4.28;1.20;;;;;;;5.11;100.00;100030.31;5007919;28;20103;-87
2022/01/31 11:14:26;;;;;;;5.63;2.10;;;;;;;5.11;100.00;100030.31;5008064;28;20312;-90
2022/01/31 11:16:54;;;;;;;7.07;1.40;;;;;;;5.09;100.00;100026.97;5009377;28;20122;-91
2022/01/31 11:19:29;;;;;;;5.47;1.52;;;;;;;5.07;100.00;100006.84;5012445;28;20037;-88
2022/01/31 11:22:00;;;;;;;4.72;1.88;;;;;;;5.03;100.00;100022.22;5008390;28;20034;-90
2022/01/31 11:24:31;;;;;;;5.05;1.35;;;;;;;5.03;100.00;100037.34;5028615;28;20136;-87
2022/01/31 11:27:04;;;;;;;5.10;1.55;;;;;;;5.00;100.00;100043.78;5021988;28;20103;-86
2022/01/31 11:29:32;;;;;;;3.00;1.27;;;;;;;4.96;100.00;100045.09;5013066;28;20041;-89
2022/01/31 11:31:58;;;;;;;3.53;1.42;;;;;;;4.94;100.00;100061.16;5012696;28;20509;-90
2022/01/31 11:34:25;;;;;;;4.60;1.00;;;;;;;4.94;100.00;100061.16;4993431;28;20124;-88
2022/01/31 11:36:51;;;;;;;4.70;1.20;;;;;;;4.92;100.00;100060.50;5012217;28;20390;-87
2022/01/31 11:39:17;;;;;;;2.45;0.68;;;;;;;4.91;100.00;100071.25;5012364;28;20482;-87
2022/01/31 11:41:50;;;;;;;2.92;0.70;;;;;;;4.90;100.00;100065.13;4984267;28;20076;-87
2022/01/31 11:44:37;;;;;;;3.78;0.77;;;;;;;4.89;100.00;100059.94;5022149;28;20049;-91
2022/01/31 11:47:07;;;;;;;4.68;1.02;;;;;;;4.90;100.00;100072.25;5008300;28;20490;-90
2022/01/31 11:49:50;;;;;;;4.25;1.20;;;;;;;4.87;100.00;100064.56;4999751;28;20073;-90
2022/01/31 11:52:17;;;;;;;4.28;1.40;;;;;;;4.82;100.00;100078.28;5008069;28;20041;-86